sensor_id;sensor_type;location;lat;lon;timestamp;pressure;altitude;pressure_sealevel;temperature;humidity
57056;BME280;42945;51.718;5.324;2023-03-01T00:00:42;102926.53;;;-3.71;100.00
57056;BME280;42945;51.718;5.324;2023-03-01T00:06:33;102895.28;;;-3.76;100.00
57056;BME280;42945;51.718;5.324;2023-03-01T00:12:22;103044.41;;;-3.13;100.00
57056;BME280;42945;51.718;5.324;2023-03-01T00:18:11;102924.41;;;-3.83;100.00
57056;BME280;42945;51.718;5.324;2023-03-01T00:24:01;102935.09;;;-3.73;100.00
57056;BME280;42945;51.718;5.324;2023-03-01T00:29:49;102911.50;;;-3.81;100.00
57056;BME280;42945;51.718;5.324;2023-03-01T00:35:36;102814.38;;;-4.41;100.00
57056;BME280;42945;51.718;5.324;2023-03-01T00:41:24;102850.25;;;-4.27;100.00
57056;BME280;42945;51.718;5.324;2023-03-01T00:50:41;102971.38;;;-3.49;100.00
57056;BME280;42945;51.718;5.324;2023-03-01T00:56:29;102887.91;;;-3.38;100.00
57056;BME280;42945;51.718;5.324;2023-03-01T01:02:19;102884.97;;;-3.48;100.00
57056;BME280;42945;51.718;5.324;2023-03-01T01:08:06;102887.66;;;-3.71;100.00
57056;BME280;42945;51.718;5.324;2023-03-01T01:13:56;102862.09;;;-3.60;100.00
57056;BME280;42945;51.718;5.324;2023-03-01T01:19:44;102885.06;;;-3.71;100.00
57056;BME280;42945;51.718;5.324;2023-03-01T01:25:35;102883.41;;;-3.69;100.00
57056;BME280;42945;51.718;5.324;2023-03-01T01:31:25;102832.63;;;-3.88;100.00
57056;BME280;42945;51.718;5.324;2023-03-01T01:37:13;102900.03;;;-3.88;100.00
57056;BME280;42945;51.718;5.324;2023-03-01T01:43:00;102858.66;;;-4.10;100.00
57056;BME280;42945;51.718;5.324;2023-03-01T01:48:54;102751.34;;;-4.89;100.00
57056;BME280;42945;51.718;5.324;2023-03-01T01:54:50;102868.44;;;-4.50;100.00
57056;BME280;42945;51.718;5.324;2023-03-01T02:00:39;102858.25;;;-4.45;100.00
57056;BME280;42945;51.718;5.324;2023-03-01T02:06:32;102897.97;;;-4.45;100.00
57056;BME280;42945;51.718;5.324;2023-03-01T02:12:24;102845.31;;;-4.68;100.00
57056;BME280;42945;51.718;5.324;2023-03-01T02:18:18;102846.75;;;-4.53;100.00
57056;BME280;42945;51.718;5.324;2023-03-01T02:24:26;102845.69;;;-4.81;100.00
57056;BME280;42945;51.718;5.324;2023-03-01T02:30:19;103112.59;;;-3.43;100.00
57056;BME280;42945;51.718;5.324;2023-03-01T02:36:11;102969.50;;;-4.02;100.00
57056;BME280;42945;51.718;5.324;2023-03-01T02:42:14;102860.91;;;-4.89;100.00
57056;BME280;42945;51.718;5.324;2023-03-01T02:48:04;102867.47;;;-4.76;100.00
57056;BME280;42945;51.718;5.324;2023-03-01T02:54:17;103063.94;;;-4.18;100.00
57056;BME280;42945;51.718;5.324;2023-03-01T03:00:23;102731.84;;;-5.49;100.00
57056;BME280;42945;51.718;5.324;2023-03-01T03:05:54;102823.06;;;-5.09;100.00
57056;BME280;42945;51.718;5.324;2023-03-01T03:11:41;102815.81;;;-4.96;100.00
57056;BME280;42945;51.718;5.324;2023-03-01T03:17:30;102827.81;;;-4.98;100.00
57056;BME280;42945;51.718;5.324;2023-03-01T03:23:19;102816.84;;;-4.92;100.00
57056;BME280;42945;51.718;5.324;2023-03-01T03:29:08;102813.28;;;-4.47;100.00
57056;BME280;42945;51.718;5.324;2023-03-01T03:34:57;102843.16;;;-4.33;100.00
57056;BME280;42945;51.718;5.324;2023-03-01T03:40:50;103013.28;;;-3.13;100.00
57056;BME280;42945;51.718;5.324;2023-03-01T03:46:39;102830.19;;;-4.09;100.00
57056;BME280;42945;51.718;5.324;2023-03-01T03:52:26;102669.88;;;-4.77;100.00
57056;BME280;42945;51.718;5.324;2023-03-01T03:58:14;102840.59;;;-4.07;100.00
57056;BME280;42945;51.718;5.324;2023-03-01T04:04:02;102818.00;;;-4.11;100.00
57056;BME280;42945;51.718;5.324;2023-03-01T04:09:52;102829.00;;;-3.93;100.00
57056;BME280;42945;51.718;5.324;2023-03-01T04:15:40;102820.72;;;-4.08;100.00
57056;BME280;42945;51.718;5.324;2023-03-01T04:21:30;102843.38;;;-4.03;100.00
57056;BME280;42945;51.718;5.324;2023-03-01T04:27:18;102810.41;;;-4.31;100.00
57056;BME280;42945;51.718;5.324;2023-03-01T04:33:06;102829.84;;;-4.42;100.00
57056;BME280;42945;51.718;5.324;2023-03-01T04:38:55;102811.41;;;-4.27;100.00
57056;BME280;42945;51.718;5.324;2023-03-01T04:44:44;102780.34;;;-4.51;100.00
57056;BME280;42945;51.718;5.324;2023-03-01T04:50:33;102924.41;;;-3.83;100.00
57056;BME280;42945;51.718;5.324;2023-03-01T04:56:22;103056.13;;;-3.00;100.00
57056;BME280;42945;51.718;5.324;2023-03-01T05:02:10;102785.56;;;-4.50;100.00
57056;BME280;42945;51.718;5.324;2023-03-01T05:08:01;102774.88;;;-4.35;100.00
57056;BME280;42945;51.718;5.324;2023-03-01T05:13:50;102785.75;;;-4.45;100.00
57056;BME280;42945;51.718;5.324;2023-03-01T05:19:42;102792.44;;;-4.50;100.00
57056;BME280;42945;51.718;5.324;2023-03-01T05:25:32;102655.22;;;-5.00;100.00
57056;BME280;42945;51.718;5.324;2023-03-01T05:31:20;102617.78;;;-5.10;100.00
57056;BME280;42945;51.718;5.324;2023-03-01T05:37:09;102776.28;;;-4.19;100.00
57056;BME280;42945;51.718;5.324;2023-03-01T05:42:57;102583.13;;;-5.15;100.00
57056;BME280;42945;51.718;5.324;2023-03-01T05:48:45;102717.59;;;-4.68;100.00
57056;BME280;42945;51.718;5.324;2023-03-01T05:54:33;102723.09;;;-4.59;100.00
57056;BME280;42945;51.718;5.324;2023-03-01T06:00:21;102863.31;;;-4.00;100.00
57056;BME280;42945;51.718;5.324;2023-03-01T06:06:09;102610.44;;;-5.23;100.00
57056;BME280;42945;51.718;5.324;2023-03-01T06:11:58;102611.75;;;-5.35;100.00
57056;BME280;42945;51.718;5.324;2023-03-01T06:17:47;102826.56;;;-4.38;100.00
57056;BME280;42945;51.718;5.324;2023-03-01T06:23:35;102741.06;;;-4.64;100.00
57056;BME280;42945;51.718;5.324;2023-03-01T06:29:23;102663.13;;;-5.20;100.00
57056;BME280;42945;51.718;5.324;2023-03-01T06:35:14;102861.78;;;-3.95;100.00
57056;BME280;42945;51.718;5.324;2023-03-01T06:41:07;102726.19;;;-4.45;100.00
57056;BME280;42945;51.718;5.324;2023-03-01T06:46:56;102796.53;;;-4.33;100.00
57056;BME280;42945;51.718;5.324;2023-03-01T06:56:32;102771.72;;;-4.26;100.00
57056;BME280;42945;51.718;5.324;2023-03-01T07:02:20;102739.25;;;-4.17;100.00
57056;BME280;42945;51.718;5.324;2023-03-01T07:08:09;102620.50;;;-4.81;100.00
57056;BME280;42945;51.718;5.324;2023-03-01T07:13:56;102774.38;;;-3.99;100.00
57056;BME280;42945;51.718;5.324;2023-03-01T07:19:45;102738.63;;;-3.55;100.00
57056;BME280;42945;51.718;5.324;2023-03-01T07:25:33;102708.09;;;-3.64;100.00
57056;BME280;42945;51.718;5.324;2023-03-01T07:31:21;102723.81;;;-3.30;100.00
57056;BME280;42945;51.718;5.324;2023-03-01T07:37:09;102715.03;;;-3.05;100.00
57056;BME280;42945;51.718;5.324;2023-03-01T07:42:57;102758.25;;;-2.77;100.00
57056;BME280;42945;51.718;5.324;2023-03-01T07:48:45;102737.47;;;-2.45;100.00
57056;BME280;42945;51.718;5.324;2023-03-01T07:54:33;102709.91;;;-2.39;100.00
57056;BME280;42945;51.718;5.324;2023-03-01T08:00:22;102762.31;;;-2.22;100.00
57056;BME280;42945;51.718;5.324;2023-03-01T08:06:13;102738.91;;;-1.88;100.00
57056;BME280;42945;51.718;5.324;2023-03-01T08:12:02;102760.06;;;-1.73;100.00
57056;BME280;42945;51.718;5.324;2023-03-01T08:17:52;102974.25;;;-0.31;100.00
57056;BME280;42945;51.718;5.324;2023-03-01T08:23:41;102836.69;;;-0.87;100.00
57056;BME280;42945;51.718;5.324;2023-03-01T08:29:33;102645.97;;;-1.97;100.00
57056;BME280;42945;51.718;5.324;2023-03-01T08:35:21;102943.78;;;0.09;100.00
57056;BME280;42945;51.718;5.324;2023-03-01T08:41:09;102598.34;;;-1.55;100.00
57056;BME280;42945;51.718;5.324;2023-03-01T08:46:57;102690.91;;;-0.81;100.00
57056;BME280;42945;51.718;5.324;2023-03-01T08:52:46;131998.53;;;167.76;100.00
57056;BME280;42945;51.718;5.324;2023-03-01T08:58:34;102703.03;;;-0.36;100.00
57056;BME280;42945;51.718;5.324;2023-03-01T09:04:23;102717.34;;;-0.12;100.00
57056;BME280;42945;51.718;5.324;2023-03-01T09:10:11;102569.66;;;-0.64;100.00
57056;BME280;42945;51.718;5.324;2023-03-01T09:16:02;102699.06;;;0.44;100.00
57056;BME280;42945;51.718;5.324;2023-03-01T09:21:50;102421.91;;;-0.69;100.00
57056;BME280;42945;51.718;5.324;2023-03-01T09:27:44;102582.03;;;0.09;100.00
57056;BME280;42945;51.718;5.324;2023-03-01T09:33:32;102725.50;;;1.36;100.00
57056;BME280;42945;51.718;5.324;2023-03-01T09:39:21;98625.13;;;-22.57;100.00
57056;BME280;42945;51.718;5.324;2023-03-01T09:45:26;102648.56;;;1.14;100.00
57056;BME280;42945;51.718;5.324;2023-03-01T09:51:22;131731.81;;;169.06;100.00
57056;BME280;42945;51.718;5.324;2023-03-01T10:01:10;102662.00;;;1.48;100.00
57056;BME280;42945;51.718;5.324;2023-03-01T10:13:15;102602.19;;;1.92;100.00
57056;BME280;42945;51.718;5.324;2023-03-01T10:19:05;102632.72;;;1.90;100.00
57056;BME280;42945;51.718;5.324;2023-03-01T10:25:00;102536.50;;;1.49;100.00
57056;BME280;42945;51.718;5.324;2023-03-01T10:30:53;102585.72;;;2.06;100.00
57056;BME280;42945;51.718;5.324;2023-03-01T10:36:42;102751.09;;;2.78;100.00
57056;BME280;42945;51.718;5.324;2023-03-01T10:42:33;102594.56;;;2.32;100.00
57056;BME280;42945;51.718;5.324;2023-03-01T10:48:26;102458.09;;;1.54;100.00
57056;BME280;42945;51.718;5.324;2023-03-01T10:57:37;102558.03;;;2.71;100.00
57056;BME280;42945;51.718;5.324;2023-03-01T11:03:33;102529.28;;;3.15;100.00
57056;BME280;42945;51.718;5.324;2023-03-01T11:09:23;102481.00;;;2.07;91.42
57056;BME280;42945;51.718;5.324;2023-03-01T11:15:28;102564.22;;;3.19;95.93
57056;BME280;42945;51.718;5.324;2023-03-01T11:21:18;102410.44;;;2.46;91.71
57056;BME280;42945;51.718;5.324;2023-03-01T11:33:20;102317.91;;;2.14;88.54
57056;BME280;42945;51.718;5.324;2023-03-01T11:45:08;102517.94;;;3.09;85.18
57056;BME280;42945;51.718;5.324;2023-03-01T11:50:58;102527.47;;;3.71;88.99
57056;BME280;42945;51.718;5.324;2023-03-01T11:57:08;102537.94;;;3.85;85.92
57056;BME280;42945;51.718;5.324;2023-03-01T12:52:23;102391.94;;;3.70;78.76
57056;BME280;42945;51.718;5.324;2023-03-01T13:08:08;102393.72;;;3.58;70.22
57056;BME280;42945;51.718;5.324;2023-03-01T13:20:19;102444.97;;;4.37;70.05
57056;BME280;42945;51.718;5.324;2023-03-01T13:26:09;102507.88;;;4.59;69.18
57056;BME280;42945;51.718;5.324;2023-03-01T13:32:00;102378.22;;;4.64;68.20
57056;BME280;42945;51.718;5.324;2023-03-01T13:37:49;102440.31;;;4.76;65.83
57056;BME280;42945;51.718;5.324;2023-03-01T13:43:39;102505.66;;;5.25;67.85
57056;BME280;42945;51.718;5.324;2023-03-01T13:49:43;102507.47;;;5.20;68.34
57056;BME280;42945;51.718;5.324;2023-03-01T13:56:10;102397.34;;;4.83;67.21
57056;BME280;42945;51.718;5.324;2023-03-01T14:01:53;102491.47;;;5.43;65.32
57056;BME280;42945;51.718;5.324;2023-03-01T14:07:41;102378.13;;;4.75;64.33
57056;BME280;42945;51.718;5.324;2023-03-01T14:19:25;102358.84;;;4.76;66.22
57056;BME280;42945;51.718;5.324;2023-03-01T14:31:36;102365.09;;;5.49;67.17
57056;BME280;42945;51.718;5.324;2023-03-01T14:37:31;102413.31;;;5.50;66.79
57056;BME280;42945;51.718;5.324;2023-03-01T14:43:22;102206.06;;;4.23;65.74
57056;BME280;42945;51.718;5.324;2023-03-01T14:49:17;102315.47;;;5.16;64.01
57056;BME280;42945;51.718;5.324;2023-03-01T14:55:56;102334.16;;;4.92;63.52
57056;BME280;42945;51.718;5.324;2023-03-01T15:05:34;101941.63;;;4.89;62.51
57056;BME280;42945;51.718;5.324;2023-03-01T15:11:33;102260.59;;;4.86;60.91
57056;BME280;42945;51.718;5.324;2023-03-01T15:17:31;102150.06;;;4.23;60.17
57056;BME280;42945;51.718;5.324;2023-03-01T15:23:29;102168.53;;;4.10;63.03
57056;BME280;42945;51.718;5.324;2023-03-01T15:29:20;102250.91;;;4.90;61.52
57056;BME280;42945;51.718;5.324;2023-03-01T15:35:44;102264.13;;;4.84;61.14
57056;BME280;42945;51.718;5.324;2023-03-01T15:41:47;102130.91;;;4.13;61.51
57056;BME280;42945;51.718;5.324;2023-03-01T15:47:39;102288.78;;;4.72;60.11
57056;BME280;42945;51.718;5.324;2023-03-01T15:53:28;102135.53;;;3.86;63.46
57056;BME280;42945;51.718;5.324;2023-03-01T15:59:18;102472.97;;;5.51;64.81
57056;BME280;42945;51.718;5.324;2023-03-01T16:05:24;102226.88;;;4.43;63.72
57056;BME280;42945;51.718;5.324;2023-03-01T16:10:54;102241.00;;;4.34;65.11
57056;BME280;42945;51.718;5.324;2023-03-01T16:16:43;102587.69;;;4.30;64.72
57056;BME280;42945;51.718;5.324;2023-03-01T16:22:32;102222.81;;;4.11;67.26
57056;BME280;42945;51.718;5.324;2023-03-01T16:28:19;102152.53;;;3.31;69.62
57056;BME280;42945;51.718;5.324;2023-03-01T16:34:07;102221.28;;;3.86;70.92
57056;BME280;42945;51.718;5.324;2023-03-01T16:39:56;102354.84;;;4.26;71.71
57056;BME280;42945;51.718;5.324;2023-03-01T16:45:43;102281.75;;;3.64;75.12
57056;BME280;42945;51.718;5.324;2023-03-01T16:51:33;102054.44;;;2.12;76.74
57056;BME280;42945;51.718;5.324;2023-03-01T16:57:23;102254.00;;;3.19;82.94
57056;BME280;42945;51.718;5.324;2023-03-01T17:06:59;102254.03;;;3.11;85.40
57056;BME280;42945;51.718;5.324;2023-03-01T17:12:51;102256.78;;;2.74;92.11
57056;BME280;42945;51.718;5.324;2023-03-01T17:18:38;102288.19;;;2.69;90.62
57056;BME280;42945;51.718;5.324;2023-03-01T17:24:27;102121.66;;;1.96;91.26
57056;BME280;42945;51.718;5.324;2023-03-01T17:30:16;102232.38;;;2.38;91.40
57056;BME280;42945;51.718;5.324;2023-03-01T17:36:05;102251.56;;;2.40;92.92
57056;BME280;42945;51.718;5.324;2023-03-01T17:41:54;102255.97;;;2.26;100.00
57056;BME280;42945;51.718;5.324;2023-03-01T17:47:42;102246.38;;;2.06;100.00
57056;BME280;42945;51.718;5.324;2023-03-01T17:53:29;102260.28;;;1.76;100.00
57056;BME280;42945;51.718;5.324;2023-03-01T17:59:17;102289.88;;;1.56;100.00
57056;BME280;42945;51.718;5.324;2023-03-01T18:08:42;102396.34;;;1.90;100.00
57056;BME280;42945;51.718;5.324;2023-03-01T18:14:31;102240.69;;;0.65;100.00
57056;BME280;42945;51.718;5.324;2023-03-01T18:20:21;102283.53;;;1.01;100.00
57056;BME280;42945;51.718;5.324;2023-03-01T18:26:10;102149.16;;;0.34;100.00
57056;BME280;42945;51.718;5.324;2023-03-01T18:32:04;102288.72;;;0.88;100.00
57056;BME280;42945;51.718;5.324;2023-03-01T18:37:52;102293.03;;;0.82;100.00
57056;BME280;42945;51.718;5.324;2023-03-01T18:43:41;102183.00;;;0.25;100.00
57056;BME280;42945;51.718;5.324;2023-03-01T18:49:28;102280.72;;;0.64;100.00
57056;BME280;42945;51.718;5.324;2023-03-01T18:55:17;102192.28;;;-0.17;100.00
57056;BME280;42945;51.718;5.324;2023-03-01T19:01:16;102268.34;;;0.38;100.00
57056;BME280;42945;51.718;5.324;2023-03-01T19:10:56;102146.31;;;-0.03;100.00
57056;BME280;42945;51.718;5.324;2023-03-01T19:16:44;102269.38;;;0.58;100.00
57056;BME280;42945;51.718;5.324;2023-03-01T19:22:32;102257.06;;;0.39;100.00
57056;BME280;42945;51.718;5.324;2023-03-01T19:28:20;102281.47;;;0.46;100.00
57056;BME280;42945;51.718;5.324;2023-03-01T19:34:08;102295.25;;;0.28;100.00
57056;BME280;42945;51.718;5.324;2023-03-01T19:39:59;102248.16;;;0.12;100.00
57056;BME280;42945;51.718;5.324;2023-03-01T19:45:52;102306.44;;;0.14;100.00
57056;BME280;42945;51.718;5.324;2023-03-01T19:51:39;102310.91;;;0.28;100.00
57056;BME280;42945;51.718;5.324;2023-03-01T19:57:28;102311.47;;;-0.04;100.00
57056;BME280;42945;51.718;5.324;2023-03-01T20:03:16;102298.34;;;-0.13;100.00
57056;BME280;42945;51.718;5.324;2023-03-01T20:12:59;102297.84;;;-0.60;100.00
57056;BME280;42945;51.718;5.324;2023-03-01T20:18:49;102303.06;;;-0.56;100.00
57056;BME280;42945;51.718;5.324;2023-03-01T20:24:37;102304.84;;;-0.54;100.00
57056;BME280;42945;51.718;5.324;2023-03-01T20:30:24;102318.63;;;-0.66;100.00
57056;BME280;42945;51.718;5.324;2023-03-01T20:36:12;102305.22;;;-0.95;100.00
57056;BME280;42945;51.718;5.324;2023-03-01T20:42:01;102360.50;;;-0.50;100.00
57056;BME280;42945;51.718;5.324;2023-03-01T20:47:51;102394.06;;;-0.73;100.00
57056;BME280;42945;51.718;5.324;2023-03-01T20:53:40;102222.28;;;-1.89;100.00
57056;BME280;42945;51.718;5.324;2023-03-01T20:59:28;102129.69;;;-1.80;100.00
57056;BME280;42945;51.718;5.324;2023-03-01T21:05:17;102256.28;;;-1.17;100.00
57056;BME280;42945;51.718;5.324;2023-03-01T21:15:00;102130.16;;;-2.04;100.00
57056;BME280;42945;51.718;5.324;2023-03-01T21:20:48;102169.78;;;-2.20;100.00
57056;BME280;42945;51.718;5.324;2023-03-01T21:26:37;102245.97;;;-1.69;100.00
57056;BME280;42945;51.718;5.324;2023-03-01T21:32:26;102308.50;;;-1.65;100.00
57056;BME280;42945;51.718;5.324;2023-03-01T21:38:14;102139.38;;;-2.26;100.00
57056;BME280;42945;51.718;5.324;2023-03-01T21:44:03;102295.47;;;-1.66;100.00
57056;BME280;42945;51.718;5.324;2023-03-01T21:49:52;102275.34;;;-1.76;100.00
57056;BME280;42945;51.718;5.324;2023-03-01T21:55:46;102207.31;;;-2.03;100.00
57056;BME280;42945;51.718;5.324;2023-03-01T22:01:34;102226.88;;;-1.71;100.00
57056;BME280;42945;51.718;5.324;2023-03-01T22:07:26;102263.34;;;-1.68;100.00
57056;BME280;42945;51.718;5.324;2023-03-01T22:17:14;102436.25;;;-0.96;100.00
57056;BME280;42945;51.718;5.324;2023-03-01T22:23:02;102261.34;;;-1.85;100.00
57056;BME280;42945;51.718;5.324;2023-03-01T22:28:52;102280.94;;;-2.04;100.00
57056;BME280;42945;51.718;5.324;2023-03-01T22:34:41;102292.16;;;-1.56;100.00
57056;BME280;42945;51.718;5.324;2023-03-01T22:40:28;102273.22;;;-1.47;100.00
57056;BME280;42945;51.718;5.324;2023-03-01T22:46:17;102212.47;;;-1.49;100.00
57056;BME280;42945;51.718;5.324;2023-03-01T22:52:07;102256.84;;;-1.40;100.00
57056;BME280;42945;51.718;5.324;2023-03-01T22:57:54;102238.41;;;-1.54;100.00
57056;BME280;42945;51.718;5.324;2023-03-01T23:03:44;102180.03;;;-2.29;100.00
57056;BME280;42945;51.718;5.324;2023-03-01T23:09:33;102176.63;;;-2.27;0.00
57056;BME280;42945;51.718;5.324;2023-03-01T23:19:14;102073.50;;;-3.28;100.00
57056;BME280;42945;51.718;5.324;2023-03-01T23:25:04;102202.84;;;-2.62;100.00
57056;BME280;42945;51.718;5.324;2023-03-01T23:36:41;102244.72;;;-2.43;100.00
57056;BME280;42945;51.718;5.324;2023-03-01T23:42:32;102281.75;;;-2.09;100.00
57056;BME280;42945;51.718;5.324;2023-03-01T23:48:20;102100.31;;;-3.29;100.00
57056;BME280;42945;51.718;5.324;2023-03-01T23:54:10;102536.03;;;-1.47;100.00
